createdAt,value
2022-12-12T00:00:11.646Z,-2.74
2022-12-12T00:01:11.644Z,-2.77
2022-12-12T00:02:11.793Z,-2.86
2022-12-12T00:03:11.754Z,-2.79
2022-12-12T00:04:11.628Z,-2.79
2022-12-12T00:05:11.909Z,-2.74
2022-12-12T00:06:11.612Z,-2.74
2022-12-12T00:07:11.569Z,-2.73
2022-12-12T00:08:11.614Z,-2.71
2022-12-12T00:09:11.565Z,-2.68
2022-12-12T00:10:11.559Z,-2.73
2022-12-12T00:11:11.545Z,-2.78
2022-12-12T00:12:11.515Z,-2.64
2022-12-12T00:13:11.512Z,-2.77
2022-12-12T00:14:11.496Z,-2.71
2022-12-12T00:15:11.827Z,-2.70
2022-12-12T00:16:11.577Z,-2.73
2022-12-12T00:17:11.519Z,-2.92
2022-12-12T00:18:11.448Z,-2.85
2022-12-12T00:19:11.436Z,-2.91
2022-12-12T00:20:11.434Z,-2.88
2022-12-12T00:21:11.438Z,-2.84
2022-12-12T00:22:11.442Z,-2.96
2022-12-12T00:23:11.395Z,-2.96
2022-12-12T00:24:11.385Z,-2.92
2022-12-12T00:25:11.854Z,-2.97
2022-12-12T00:26:11.375Z,-3.02
2022-12-12T00:27:11.357Z,-2.91
2022-12-12T00:28:11.376Z,-3.00
2022-12-12T00:29:11.334Z,-2.94
2022-12-12T00:30:11.329Z,-3.10
2022-12-12T00:31:11.378Z,-3.10
2022-12-12T00:32:11.320Z,-2.99
2022-12-12T00:33:11.294Z,-2.96
2022-12-12T00:34:11.319Z,-3.00
2022-12-12T00:35:11.596Z,-3.07
2022-12-12T00:36:11.254Z,-3.07
2022-12-12T00:37:11.282Z,-3.02
2022-12-12T00:38:11.253Z,-3.02
2022-12-12T00:39:16.721Z,-2.88
2022-12-12T00:40:12.262Z,-3.06
2022-12-12T00:41:11.198Z,-2.97
2022-12-12T00:42:11.197Z,-3.12
2022-12-12T00:43:11.182Z,-3.06
2022-12-12T00:44:11.168Z,-3.02
2022-12-12T00:45:11.529Z,-2.88
2022-12-12T00:46:11.230Z,-2.88
2022-12-12T00:47:11.153Z,-2.99
2022-12-12T00:48:11.126Z,-3.02
2022-12-12T00:49:11.120Z,-2.96
2022-12-12T00:50:11.130Z,-2.97
2022-12-12T00:51:11.114Z,-3.02
2022-12-12T00:52:11.128Z,-2.97
2022-12-12T00:53:11.099Z,-3.06
2022-12-12T00:54:11.060Z,-3.06
2022-12-12T00:55:11.254Z,-3.05
2022-12-12T00:56:11.049Z,-3.12
2022-12-12T00:57:11.045Z,-3.09
2022-12-12T00:58:11.086Z,-3.14
2022-12-12T00:59:11.003Z,-3.23
2022-12-12T01:00:10.996Z,-3.21
2022-12-12T01:01:11.002Z,-3.24
2022-12-12T01:02:11.047Z,-3.17
2022-12-12T01:03:10.993Z,-3.10
2022-12-12T01:04:10.991Z,-3.05
2022-12-12T01:05:11.368Z,-3.05
2022-12-12T01:06:10.931Z,-2.99
2022-12-12T01:07:10.918Z,-2.89
2022-12-12T01:08:10.965Z,-2.97
2022-12-12T01:09:10.920Z,-2.89
2022-12-12T01:10:10.941Z,-2.86
2022-12-12T01:11:10.875Z,-2.88
2022-12-12T01:12:10.871Z,-2.91
2022-12-12T01:13:10.853Z,-2.92
2022-12-12T01:14:10.860Z,-2.91
2022-12-12T01:15:11.179Z,-2.86
2022-12-12T01:16:10.934Z,-2.94
2022-12-12T01:17:10.843Z,-2.97
2022-12-12T01:18:10.824Z,-2.86
2022-12-12T01:19:10.818Z,-2.89
2022-12-12T01:20:10.792Z,-2.92
2022-12-12T01:21:10.767Z,-2.89
2022-12-12T01:22:10.772Z,-2.92
2022-12-12T01:23:10.757Z,-2.91
2022-12-12T01:24:10.756Z,-2.74
2022-12-12T01:25:11.116Z,-2.88
2022-12-12T01:26:10.727Z,-2.85
2022-12-12T01:27:10.702Z,-2.88
2022-12-12T01:28:10.753Z,-2.89
2022-12-12T01:29:10.682Z,-2.84
2022-12-12T01:30:10.686Z,-2.85
2022-12-12T01:31:10.712Z,-2.96
2022-12-12T01:32:10.676Z,-2.94
2022-12-12T01:33:10.643Z,-3.09
2022-12-12T01:34:10.636Z,-3.06
2022-12-12T01:35:11.097Z,-3.06
2022-12-12T01:36:10.603Z,-3.12
2022-12-12T01:37:10.608Z,-3.06
2022-12-12T01:38:10.922Z,-3.02
2022-12-12T01:39:10.572Z,-2.99
2022-12-12T01:40:10.577Z,-3.07
2022-12-12T01:41:10.589Z,-3.02
2022-12-12T01:42:10.562Z,-3.03
2022-12-12T01:43:10.540Z,-2.94
2022-12-12T01:44:10.547Z,-2.92
2022-12-12T01:45:10.859Z,-2.88
2022-12-12T01:46:10.561Z,-2.99
2022-12-12T01:47:10.502Z,-2.96
2022-12-12T01:48:10.480Z,-3.14
2022-12-12T01:49:10.485Z,-3.10
2022-12-12T01:50:10.449Z,-3.15
2022-12-12T01:51:10.441Z,-3.14
2022-12-12T01:52:10.463Z,-3.14
2022-12-12T01:53:10.437Z,-3.09
2022-12-12T01:54:10.418Z,-3.15
2022-12-12T01:55:10.639Z,-3.07
2022-12-12T01:56:10.387Z,-3.03
2022-12-12T01:57:10.407Z,-3.15
2022-12-12T01:58:10.384Z,-3.23
2022-12-12T01:59:10.353Z,-3.20
2022-12-12T02:00:10.358Z,-3.20
2022-12-12T02:01:10.433Z,-3.15
2022-12-12T02:02:10.406Z,-3.21
2022-12-12T02:03:10.312Z,-3.23
2022-12-12T02:04:10.322Z,-3.24
2022-12-12T02:05:10.748Z,-3.15
2022-12-12T02:06:10.283Z,-3.17
2022-12-12T02:07:10.293Z,-3.17
2022-12-12T02:08:10.293Z,-3.10
2022-12-12T02:09:10.248Z,-3.20
2022-12-12T02:10:10.267Z,-3.10
2022-12-12T02:11:10.231Z,-3.10
2022-12-12T02:12:10.222Z,-3.10
2022-12-12T02:13:10.230Z,-3.18
2022-12-12T02:14:10.190Z,-3.12
2022-12-12T02:15:10.469Z,-3.10
2022-12-12T02:16:10.234Z,-3.12
2022-12-12T02:17:10.166Z,-3.06
2022-12-12T02:18:12.858Z,-3.00
2022-12-12T02:19:10.138Z,-3.05
2022-12-12T02:20:10.124Z,-3.05
2022-12-12T02:21:10.114Z,-2.84
2022-12-12T02:22:10.133Z,-3.00
2022-12-12T02:23:10.104Z,-2.92
2022-12-12T02:24:10.103Z,-2.96
2022-12-12T02:25:10.458Z,-3.00
2022-12-12T02:26:10.058Z,-2.86
2022-12-12T02:27:10.082Z,-2.92
2022-12-12T02:28:10.080Z,-2.94
2022-12-12T02:29:10.078Z,-3.03
2022-12-12T02:30:10.018Z,-2.99
2022-12-12T02:31:10.074Z,-2.96
2022-12-12T02:32:09.993Z,-2.99
2022-12-12T02:33:09.994Z,-2.97
2022-12-12T02:34:10.000Z,-2.99
2022-12-12T02:35:10.236Z,-2.96
2022-12-12T02:36:09.982Z,-2.96
2022-12-12T02:37:09.941Z,-2.89
2022-12-12T02:38:09.929Z,-2.86
2022-12-12T02:39:09.933Z,-2.84
2022-12-12T02:40:09.928Z,-2.91
2022-12-12T02:41:09.922Z,-2.70
2022-12-12T02:42:09.885Z,-2.71
2022-12-12T02:43:09.874Z,-2.66
2022-12-12T02:44:09.886Z,-2.67
2022-12-12T02:45:10.174Z,-2.63
2022-12-12T02:46:09.871Z,-2.71
2022-12-12T02:47:09.847Z,-2.67
2022-12-12T02:48:09.819Z,-2.63
2022-12-12T02:49:09.813Z,-2.58
2022-12-12T02:50:09.800Z,-2.56
2022-12-12T02:51:09.822Z,-2.52
2022-12-12T02:52:09.826Z,-2.53
2022-12-12T02:53:09.767Z,-2.55
2022-12-12T02:54:09.755Z,-2.58
2022-12-12T02:55:09.962Z,-2.61
2022-12-12T02:56:09.742Z,-2.64
2022-12-12T02:57:09.725Z,-2.73
2022-12-12T02:58:09.752Z,-2.86
2022-12-12T02:59:09.728Z,-2.79
2022-12-12T03:00:09.692Z,-2.77
2022-12-12T03:01:09.765Z,-2.84
2022-12-12T03:02:09.797Z,-2.81
2022-12-12T03:03:09.664Z,-2.73
2022-12-12T03:04:09.663Z,-2.74
2022-12-12T03:05:09.820Z,-2.68
2022-12-12T03:06:09.622Z,-2.60
2022-12-12T03:07:09.642Z,-2.58
2022-12-12T03:08:09.692Z,-2.60
2022-12-12T03:09:09.603Z,-2.56
2022-12-12T03:10:09.598Z,-2.55
2022-12-12T03:11:09.605Z,-2.61
2022-12-12T03:12:09.566Z,-2.61
2022-12-12T03:13:09.571Z,-2.61
2022-12-12T03:14:09.535Z,-2.63
2022-12-12T03:15:09.563Z,-2.66
2022-12-12T03:16:09.668Z,-2.64
2022-12-12T03:17:09.598Z,-2.73
2022-12-12T03:18:09.506Z,-2.67
2022-12-12T03:19:09.500Z,-2.70
2022-12-12T03:20:09.473Z,-2.73
2022-12-12T03:21:09.475Z,-2.63
2022-12-12T03:22:09.447Z,-2.66
2022-12-12T03:23:09.451Z,-2.74
2022-12-12T03:24:09.437Z,-2.68
2022-12-12T03:25:09.430Z,-2.74
2022-12-12T03:26:09.411Z,-2.86
2022-12-12T03:27:09.421Z,-2.92
2022-12-12T03:28:09.382Z,-2.94
2022-12-12T03:29:09.395Z,-3.02
2022-12-12T03:30:09.500Z,-2.97
2022-12-12T03:31:09.415Z,-3.06
2022-12-12T03:32:09.351Z,-3.07
2022-12-12T03:33:09.351Z,-3.15
2022-12-12T03:34:09.318Z,-3.21
2022-12-12T03:35:09.344Z,-3.15
2022-12-12T03:36:09.321Z,-3.18
2022-12-12T03:37:09.287Z,-3.02
2022-12-12T03:38:09.290Z,-3.10
2022-12-12T03:39:09.297Z,-3.14
2022-12-12T03:40:09.251Z,-3.10
2022-12-12T03:41:09.258Z,-3.14
2022-12-12T03:42:09.238Z,-3.20
2022-12-12T03:43:09.246Z,-3.14
2022-12-12T03:44:09.223Z,-3.20
2022-12-12T03:45:09.226Z,-3.21
2022-12-12T03:46:09.326Z,-3.21
2022-12-12T03:47:09.203Z,-3.25
2022-12-12T03:48:09.177Z,-3.25
2022-12-12T03:49:09.185Z,-3.36
2022-12-12T03:50:09.171Z,-3.24
2022-12-12T03:51:09.132Z,-3.25
2022-12-12T03:52:09.137Z,-3.30
2022-12-12T03:53:09.212Z,-3.28
2022-12-12T03:54:09.118Z,-3.21
2022-12-12T03:55:09.099Z,-3.25
2022-12-12T03:56:09.104Z,-3.23
2022-12-12T03:57:09.069Z,-3.25
2022-12-12T03:58:09.056Z,-3.21
2022-12-12T03:59:09.063Z,-3.25
2022-12-12T04:00:09.064Z,-3.24
2022-12-12T04:01:09.133Z,-3.24
2022-12-12T04:02:09.044Z,-3.31
2022-12-12T04:03:09.003Z,-3.36
2022-12-12T04:04:08.999Z,-3.38
2022-12-12T04:05:09.012Z,-3.36
2022-12-12T04:06:08.996Z,-3.38
2022-12-12T04:07:08.981Z,-3.38
2022-12-12T04:08:09.021Z,-3.43
2022-12-12T04:09:08.937Z,-3.43
2022-12-12T04:10:08.927Z,-3.46
2022-12-12T04:11:08.935Z,-3.48
2022-12-12T04:12:08.910Z,-3.52
2022-12-12T04:13:08.917Z,-3.42
2022-12-12T04:14:08.881Z,-3.45
2022-12-12T04:15:08.881Z,-3.46
2022-12-12T04:16:08.924Z,-3.52
2022-12-12T04:17:08.890Z,-3.42
2022-12-12T04:18:08.850Z,-3.53
2022-12-12T04:19:08.844Z,-3.45
2022-12-12T04:20:08.864Z,-3.36
2022-12-12T04:21:08.834Z,-3.48
2022-12-12T04:22:08.798Z,-3.38
2022-12-12T04:23:08.786Z,-3.31
2022-12-12T04:24:08.805Z,-3.31
2022-12-12T04:25:08.792Z,-3.33
2022-12-12T04:26:08.791Z,-3.30
2022-12-12T04:27:08.741Z,-3.27
2022-12-12T04:28:08.734Z,-3.28
2022-12-12T04:29:08.720Z,-3.31
2022-12-12T04:30:08.740Z,-3.38
2022-12-12T04:31:08.699Z,-3.33
2022-12-12T04:32:08.770Z,-3.31
2022-12-12T04:33:08.679Z,-3.24
2022-12-12T04:34:08.676Z,-3.31
2022-12-12T04:35:08.657Z,-3.30
2022-12-12T04:36:08.686Z,-3.24
2022-12-12T04:37:08.660Z,-3.18
2022-12-12T04:38:08.620Z,-3.15
2022-12-12T04:39:08.611Z,-3.18
2022-12-12T04:40:08.611Z,-3.18
2022-12-12T04:41:08.597Z,-3.20
2022-12-12T04:42:08.629Z,-3.23
2022-12-12T04:43:08.599Z,-3.25
2022-12-12T04:44:08.554Z,-3.25
2022-12-12T04:45:08.550Z,-3.27
2022-12-12T04:46:08.567Z,-3.24
2022-12-12T04:47:08.537Z,-3.23
2022-12-12T04:48:08.560Z,-3.20
2022-12-12T04:49:08.517Z,-3.20
2022-12-12T04:50:08.495Z,-3.25
2022-12-12T04:51:08.484Z,-3.24
2022-12-12T04:52:08.469Z,-3.25
2022-12-12T04:53:12.161Z,-3.21
2022-12-12T04:54:09.497Z,-3.21
2022-12-12T04:55:08.436Z,-3.20
2022-12-12T04:56:08.424Z,-3.21
2022-12-12T04:57:08.423Z,-3.20
2022-12-12T04:58:08.406Z,-3.14
2022-12-12T04:59:08.423Z,-3.20
2022-12-12T05:00:08.421Z,-3.17
2022-12-12T05:01:08.399Z,-3.30
2022-12-12T05:02:08.369Z,-3.23
2022-12-12T05:03:08.363Z,-3.38
2022-12-12T05:04:08.348Z,-3.28
2022-12-12T05:05:08.353Z,-3.25
2022-12-12T05:06:08.356Z,-3.36
2022-12-12T05:07:08.308Z,-3.27
2022-12-12T05:08:08.351Z,-3.30
2022-12-12T05:09:08.332Z,-3.23
2022-12-12T05:10:08.287Z,-3.17
2022-12-12T05:11:08.286Z,-3.21
2022-12-12T05:12:08.260Z,-3.05
2022-12-12T05:13:17.465Z,-3.07
2022-12-12T05:14:08.231Z,-3.09
2022-12-12T05:15:08.241Z,-3.12
2022-12-12T05:16:08.223Z,-3.09
2022-12-12T05:17:08.206Z,-2.97
2022-12-12T05:18:08.191Z,-2.99
2022-12-12T05:19:08.192Z,-2.86
2022-12-12T05:20:08.198Z,-2.96
2022-12-12T05:21:08.155Z,-2.97
2022-12-12T05:22:08.297Z,-2.94
2022-12-12T05:23:08.161Z,-2.92
2022-12-12T05:24:08.121Z,-2.97
2022-12-12T05:25:08.148Z,-3.03
2022-12-12T05:26:08.110Z,-3.14
2022-12-12T05:27:08.132Z,-3.02
2022-12-12T05:28:08.104Z,-3.06
2022-12-12T05:29:08.069Z,-3.05
2022-12-12T05:30:08.057Z,-3.06
2022-12-12T05:31:08.105Z,-3.14
2022-12-12T05:32:08.042Z,-3.14
2022-12-12T05:33:08.055Z,-3.24
2022-12-12T05:34:08.031Z,-3.20
2022-12-12T05:35:08.005Z,-3.24
2022-12-12T05:36:08.006Z,-3.21
2022-12-12T05:37:07.979Z,-3.28
2022-12-12T05:38:07.988Z,-3.33
2022-12-12T05:39:08.003Z,-3.27
2022-12-12T05:40:07.967Z,-3.35
2022-12-12T05:41:07.994Z,-3.28
2022-12-12T05:42:07.927Z,-3.31
2022-12-12T05:43:07.947Z,-3.30
2022-12-12T05:44:07.903Z,-3.36
2022-12-12T05:45:07.952Z,-3.31
2022-12-12T05:46:07.929Z,-3.30
2022-12-12T05:47:07.868Z,-3.38
2022-12-12T05:48:07.870Z,-3.33
2022-12-12T05:49:07.861Z,-3.38
2022-12-12T05:50:07.847Z,-3.33
2022-12-12T05:51:07.867Z,-3.42
2022-12-12T05:52:07.816Z,-3.48
2022-12-12T05:53:07.812Z,-3.45
2022-12-12T05:54:07.812Z,-3.48
2022-12-12T05:55:07.800Z,-3.43
2022-12-12T05:56:07.781Z,-3.46
2022-12-12T05:57:07.800Z,-3.49
2022-12-12T05:58:07.751Z,-3.48
2022-12-12T05:59:07.738Z,-3.52
2022-12-12T06:00:07.759Z,-3.48
2022-12-12T06:01:07.717Z,-3.46
2022-12-12T06:02:07.787Z,-3.49
2022-12-12T06:03:07.737Z,-3.49
2022-12-12T06:04:07.904Z,-3.56
2022-12-12T06:05:07.679Z,-3.39
2022-12-12T06:06:08.000Z,-3.46
2022-12-12T06:07:07.652Z,-3.39
2022-12-12T06:08:07.674Z,-3.46
2022-12-12T06:09:07.673Z,-3.48
2022-12-12T06:10:07.620Z,-3.54
2022-12-12T06:11:07.628Z,-3.60
2022-12-12T06:12:07.610Z,-3.59
2022-12-12T06:13:07.617Z,-3.67
2022-12-12T06:14:07.599Z,-3.72
2022-12-12T06:15:07.634Z,-3.71
2022-12-12T06:16:07.651Z,-3.71
2022-12-12T06:17:07.557Z,-3.81
2022-12-12T06:18:07.548Z,-3.82
2022-12-12T06:19:07.531Z,-3.86
2022-12-12T06:20:07.536Z,-3.86
2022-12-12T06:21:07.507Z,-3.85
2022-12-12T06:22:07.494Z,-3.86
2022-12-12T06:23:07.476Z,-3.86
2022-12-12T06:24:07.506Z,-3.94
2022-12-12T06:25:07.468Z,-3.91
2022-12-12T06:26:07.467Z,-3.91
2022-12-12T06:27:07.485Z,-4.06
2022-12-12T06:28:07.423Z,-3.97
2022-12-12T06:29:07.439Z,-3.94
2022-12-12T06:30:07.427Z,-4.10
2022-12-12T06:31:11.557Z,-4.00
2022-12-12T06:32:07.380Z,-3.97
2022-12-12T06:33:07.384Z,-4.04
2022-12-12T06:34:07.359Z,-4.07
2022-12-12T06:35:07.365Z,-4.01
2022-12-12T06:36:07.362Z,-4.07
2022-12-12T06:37:07.344Z,-4.07
2022-12-12T06:38:07.315Z,-4.04
2022-12-12T06:39:07.320Z,-4.03
2022-12-12T06:40:07.307Z,-4.04
2022-12-12T06:41:07.306Z,-4.18
2022-12-12T06:42:07.281Z,-4.24
2022-12-12T06:43:07.277Z,-4.18
2022-12-12T06:44:07.249Z,-4.21
2022-12-12T06:45:07.257Z,-4.25
2022-12-12T06:46:07.280Z,-4.22
2022-12-12T06:47:07.234Z,-4.24
2022-12-12T06:48:07.218Z,-4.18
2022-12-12T06:49:07.224Z,-4.28
2022-12-12T06:50:07.185Z,-4.28
2022-12-12T06:51:07.194Z,-4.30
2022-12-12T06:52:07.192Z,-4.22
2022-12-12T06:53:07.151Z,-4.30
2022-12-12T06:54:07.156Z,-4.24
2022-12-12T06:55:07.131Z,-4.30
2022-12-12T06:56:07.136Z,-4.21
2022-12-12T06:57:07.123Z,-4.25
2022-12-12T06:58:07.130Z,-4.25
2022-12-12T06:59:07.114Z,-4.33
2022-12-12T07:00:07.095Z,-4.32
2022-12-12T07:01:07.151Z,-4.32
2022-12-12T07:02:07.068Z,-4.39
2022-12-12T07:03:07.076Z,-4.39
2022-12-12T07:04:07.044Z,-4.40
2022-12-12T07:05:07.030Z,-4.47
2022-12-12T07:06:07.021Z,-4.40
2022-12-12T07:07:07.001Z,-4.43
2022-12-12T07:08:07.052Z,-4.46
2022-12-12T07:09:07.019Z,-4.46
2022-12-12T07:10:06.987Z,-4.53
2022-12-12T07:11:06.968Z,-4.39
2022-12-12T07:12:06.964Z,-4.38
2022-12-12T07:13:06.976Z,-4.40
2022-12-12T07:14:07.037Z,-4.46
2022-12-12T07:15:06.915Z,-4.53
2022-12-12T07:16:06.963Z,-4.47
2022-12-12T07:17:06.943Z,-4.51
2022-12-12T07:18:06.907Z,-4.39
2022-12-12T07:19:06.869Z,-4.50
2022-12-12T07:20:06.861Z,-4.50
2022-12-12T07:21:06.855Z,-4.53
2022-12-12T07:22:10.115Z,-4.51
2022-12-12T07:23:06.844Z,-4.63
2022-12-12T07:24:06.821Z,-4.57
2022-12-12T07:25:06.805Z,-4.61
2022-12-12T07:26:06.796Z,-4.69
2022-12-12T07:27:06.813Z,-4.65
2022-12-12T07:28:06.797Z,-4.72
2022-12-12T07:29:06.782Z,-4.58
2022-12-12T07:30:06.754Z,-4.57
2022-12-12T07:31:06.783Z,-4.60
2022-12-12T07:32:06.731Z,-4.57
2022-12-12T07:33:06.754Z,-4.58
2022-12-12T07:34:06.778Z,-4.50
2022-12-12T07:35:06.708Z,-4.58
2022-12-12T07:36:06.687Z,-4.53
2022-12-12T07:37:06.724Z,-4.58
2022-12-12T07:38:06.682Z,-4.49
2022-12-12T07:39:06.675Z,-4.39
2022-12-12T07:40:06.656Z,-4.43
2022-12-12T07:41:06.681Z,-4.40
2022-12-12T07:42:06.624Z,-4.22
2022-12-12T07:43:06.610Z,-4.29
2022-12-12T07:44:06.603Z,-4.21
2022-12-12T07:45:06.628Z,-4.20
2022-12-12T07:46:06.656Z,-4.18
2022-12-12T07:47:06.613Z,-4.17
2022-12-12T07:48:06.557Z,-4.03
2022-12-12T07:49:06.568Z,-4.03
2022-12-12T07:50:06.569Z,-4.10
2022-12-12T07:51:06.533Z,-3.97
2022-12-12T07:52:06.521Z,-4.03
2022-12-12T07:53:06.547Z,-4.07
2022-12-12T07:54:06.494Z,-4.04
2022-12-12T07:55:06.482Z,-3.99
2022-12-12T07:56:06.490Z,-4.04
2022-12-12T07:57:06.464Z,-4.01
2022-12-12T07:58:06.465Z,-4.14
2022-12-12T07:59:06.475Z,-4.04
2022-12-12T08:00:06.436Z,-4.07
2022-12-12T08:01:09.873Z,-4.06
2022-12-12T08:02:07.463Z,-3.97
2022-12-12T08:03:06.405Z,-4.00
2022-12-12T08:04:06.409Z,-3.99
2022-12-12T08:05:06.485Z,-4.01
2022-12-12T08:06:06.367Z,-3.96
2022-12-12T08:07:08.628Z,-4.00
2022-12-12T08:08:06.412Z,-3.91
2022-12-12T08:09:06.351Z,-4.11
2022-12-12T08:10:06.335Z,-4.12
2022-12-12T08:11:06.342Z,-4.04
2022-12-12T08:12:06.299Z,-4.10
2022-12-12T08:13:06.289Z,-4.04
2022-12-12T08:14:11.171Z,-4.20
2022-12-12T08:15:07.265Z,-4.22
2022-12-12T08:16:06.353Z,-4.28
2022-12-12T08:17:06.285Z,-4.30
2022-12-12T08:18:06.236Z,-4.17
2022-12-12T08:19:06.231Z,-4.21
2022-12-12T08:20:06.212Z,-4.17
2022-12-12T08:21:06.249Z,-4.20
2022-12-12T08:22:06.216Z,-4.20
2022-12-12T08:23:06.183Z,-4.14
2022-12-12T08:24:06.193Z,-4.20
2022-12-12T08:25:06.168Z,-4.07
2022-12-12T08:26:06.151Z,-4.11
2022-12-12T08:27:08.547Z,-4.04
2022-12-12T08:28:07.124Z,-4.07
2022-12-12T08:29:06.113Z,-4.06
2022-12-12T08:30:06.119Z,-3.96
2022-12-12T08:31:06.125Z,-4.07
2022-12-12T08:32:06.089Z,-3.97
2022-12-12T08:33:08.176Z,-4.01
2022-12-12T08:34:06.068Z,-3.96
2022-12-12T08:35:06.048Z,-4.03
2022-12-12T08:36:06.058Z,-3.97
2022-12-12T08:37:06.064Z,-3.99
2022-12-12T08:38:06.030Z,-4.00
2022-12-12T08:39:06.026Z,-4.01
2022-12-12T08:40:05.994Z,-4.01
2022-12-12T08:41:05.981Z,-4.01
2022-12-12T08:42:06.024Z,-3.96
2022-12-12T08:43:05.964Z,-3.93
2022-12-12T08:44:05.969Z,-3.91
2022-12-12T08:45:05.938Z,-3.86
2022-12-12T08:46:05.970Z,-3.91
2022-12-12T08:47:05.992Z,-3.86
2022-12-12T08:48:05.956Z,-3.86
2022-12-12T08:49:05.899Z,-3.78
2022-12-12T08:50:05.900Z,-3.83
2022-12-12T08:51:05.905Z,-3.88
2022-12-12T08:52:05.869Z,-3.88
2022-12-12T08:53:05.875Z,-3.82
2022-12-12T08:54:05.879Z,-3.81
2022-12-12T08:55:05.839Z,-3.81
2022-12-12T08:56:05.837Z,-3.79
2022-12-12T08:57:05.819Z,-3.79
2022-12-12T08:58:05.810Z,-3.81
2022-12-12T08:59:05.787Z,-3.81
2022-12-12T09:00:05.811Z,-3.79
2022-12-12T09:01:05.794Z,-3.86
2022-12-12T09:02:05.882Z,-3.86
2022-12-12T09:03:05.829Z,-3.90
2022-12-12T09:04:05.734Z,-3.86
2022-12-12T09:05:05.742Z,-3.83
2022-12-12T09:06:05.727Z,-3.94
2022-12-12T09:07:08.647Z,-3.88
2022-12-12T09:08:05.775Z,-3.94
2022-12-12T09:09:05.706Z,-3.86
2022-12-12T09:10:05.669Z,-3.93
2022-12-12T09:11:05.663Z,-3.96
2022-12-12T09:12:05.673Z,-3.94
2022-12-12T09:13:05.656Z,-3.99
2022-12-12T09:14:05.655Z,-4.00
2022-12-12T09:15:05.614Z,-3.85
2022-12-12T09:16:05.667Z,-3.88
2022-12-12T09:17:05.603Z,-3.96
2022-12-12T09:18:05.613Z,-3.86
2022-12-12T09:19:05.593Z,-3.91
2022-12-12T09:20:05.559Z,-3.86
2022-12-12T09:21:05.548Z,-3.94
2022-12-12T09:22:05.539Z,-3.85
2022-12-12T09:23:05.541Z,-3.88
2022-12-12T09:24:05.547Z,-3.94
2022-12-12T09:25:05.527Z,-3.99
2022-12-12T09:26:05.501Z,-3.97
2022-12-12T09:27:05.482Z,-4.01
2022-12-12T09:28:05.473Z,-4.03
2022-12-12T09:29:05.476Z,-3.94
2022-12-12T09:30:05.485Z,-3.91
2022-12-12T09:31:05.582Z,-3.85
2022-12-12T09:32:05.436Z,-3.93
2022-12-12T09:33:05.426Z,-3.91
2022-12-12T09:34:05.413Z,-3.94
2022-12-12T09:35:05.395Z,-3.91
2022-12-12T09:36:05.426Z,-3.83
2022-12-12T09:37:05.374Z,-3.69
2022-12-12T09:38:08.217Z,-3.78
2022-12-12T09:39:06.366Z,-3.76
2022-12-12T09:40:05.353Z,-3.69
2022-12-12T09:41:05.356Z,-3.66
2022-12-12T09:42:05.365Z,-3.72
2022-12-12T09:43:05.341Z,-3.67
2022-12-12T09:44:05.298Z,-3.71
2022-12-12T09:45:05.315Z,-3.67
2022-12-12T09:46:05.463Z,-3.71
2022-12-12T09:47:05.303Z,-3.56
2022-12-12T09:48:05.275Z,-3.60
2022-12-12T09:49:05.278Z,-3.63
2022-12-12T09:50:05.236Z,-3.66
2022-12-12T09:51:05.225Z,-3.57
2022-12-12T09:52:05.266Z,-3.53
2022-12-12T09:53:05.216Z,-3.45
2022-12-12T09:54:05.216Z,-3.48
2022-12-12T09:55:05.221Z,-3.48
2022-12-12T09:56:05.166Z,-3.38
2022-12-12T09:57:05.179Z,-3.48
2022-12-12T09:58:05.159Z,-3.36
2022-12-12T09:59:05.151Z,-3.33
2022-12-12T10:00:05.150Z,-3.33
2022-12-12T10:01:05.211Z,-3.25
2022-12-12T10:02:05.168Z,-3.27
2022-12-12T10:03:05.130Z,-3.24
2022-12-12T10:04:05.086Z,-3.28
2022-12-12T10:05:05.080Z,-3.31
2022-12-12T10:06:35.849Z,-3.28
2022-12-12T10:07:06.068Z,-3.25
2022-12-12T10:08:05.113Z,-3.21
2022-12-12T10:09:05.070Z,-3.21
2022-12-12T10:10:05.023Z,-3.27
2022-12-12T10:11:05.024Z,-3.23
2022-12-12T10:12:08.215Z,-3.23
2022-12-12T10:13:05.001Z,-3.21
2022-12-12T10:14:04.988Z,-3.24
2022-12-12T10:15:05.051Z,-3.20
2022-12-12T10:16:05.039Z,-3.23
2022-12-12T10:17:04.976Z,-3.17
2022-12-12T10:18:04.928Z,-3.23
2022-12-12T10:19:04.919Z,-3.15
2022-12-12T10:20:04.910Z,-3.23
2022-12-12T10:21:04.913Z,-3.20
2022-12-12T10:22:04.900Z,-3.18
2022-12-12T10:23:04.893Z,-3.20
2022-12-12T10:24:04.863Z,-3.17
2022-12-12T10:25:04.856Z,-3.23
2022-12-12T10:26:04.847Z,-3.12
2022-12-12T10:27:04.846Z,-3.10
2022-12-12T10:28:04.839Z,-3.06
2022-12-12T10:29:04.841Z,-3.09
2022-12-12T10:30:04.798Z,-3.02
2022-12-12T10:31:04.789Z,-3.00
2022-12-12T10:32:04.808Z,-2.91
2022-12-12T10:33:04.807Z,-2.86
2022-12-12T10:34:04.765Z,-2.85
2022-12-12T10:35:04.814Z,-2.86
2022-12-12T10:36:04.735Z,-2.88
2022-12-12T10:37:04.721Z,-2.79
2022-12-12T10:38:04.735Z,-2.77
2022-12-12T10:39:04.743Z,-2.74
2022-12-12T10:40:04.707Z,-2.73
2022-12-12T10:41:04.716Z,-2.78
2022-12-12T10:42:04.667Z,-2.71
2022-12-12T10:43:04.656Z,-2.66
2022-12-12T10:44:04.644Z,-2.68
2022-12-12T10:45:04.669Z,-2.66
2022-12-12T10:46:04.739Z,-2.64
2022-12-12T10:47:04.684Z,-2.55
2022-12-12T10:48:04.602Z,-2.46
2022-12-12T10:49:04.621Z,-2.55
2022-12-12T10:50:08.706Z,-2.42
2022-12-12T10:51:05.616Z,-2.39
2022-12-12T10:52:04.582Z,-2.37
2022-12-12T10:53:04.546Z,-2.32
2022-12-12T10:54:04.536Z,-2.35
2022-12-12T10:55:04.535Z,-2.37
2022-12-12T10:56:04.519Z,-2.32
2022-12-12T10:57:04.551Z,-2.32
2022-12-12T10:58:04.491Z,-2.39
2022-12-12T10:59:04.485Z,-2.39
2022-12-12T11:00:04.479Z,-2.43
2022-12-12T11:01:04.578Z,-2.34
2022-12-12T11:02:11.806Z,-2.32
2022-12-12T11:03:05.547Z,-2.34
2022-12-12T11:04:04.519Z,-2.35
2022-12-12T11:05:04.419Z,-2.49
2022-12-12T11:06:04.417Z,-2.32
2022-12-12T11:07:04.395Z,-2.32
2022-12-12T11:08:04.506Z,-2.39
2022-12-12T11:09:04.394Z,-2.23
2022-12-12T11:10:04.370Z,-2.26
2022-12-12T11:11:04.365Z,-2.24
2022-12-12T11:12:04.371Z,-2.21
2022-12-12T11:13:04.331Z,-2.29
2022-12-12T11:14:04.328Z,-2.23
2022-12-12T11:15:04.307Z,-2.32
2022-12-12T11:16:07.582Z,-2.26
2022-12-12T11:17:05.370Z,-2.12
2022-12-12T11:18:06.406Z,-2.15
2022-12-12T11:19:04.275Z,-2.21
2022-12-12T11:20:04.268Z,-2.12
2022-12-12T11:21:04.247Z,-2.10
2022-12-12T11:22:04.244Z,-2.13
2022-12-12T11:23:04.259Z,-2.10
2022-12-12T11:24:04.222Z,-2.18
2022-12-12T11:25:04.207Z,-2.12
2022-12-12T11:26:04.226Z,-2.18
2022-12-12T11:27:04.178Z,-2.16
2022-12-12T11:28:06.798Z,-2.15
2022-12-12T11:29:07.000Z,-2.16
2022-12-12T11:30:04.175Z,-2.06
2022-12-12T11:31:04.146Z,-2.03
2022-12-12T11:32:04.211Z,-2.06
2022-12-12T11:33:04.138Z,-2.12
2022-12-12T11:34:04.118Z,-2.06
2022-12-12T11:35:04.094Z,-1.98
2022-12-12T11:36:04.095Z,-1.98
2022-12-12T11:37:04.084Z,-2.03
2022-12-12T11:38:04.057Z,-2.03
2022-12-12T11:39:04.062Z,-2.08
2022-12-12T11:40:04.035Z,-2.09
2022-12-12T11:41:04.035Z,-2.02
2022-12-12T11:42:04.060Z,-2.10
2022-12-12T11:43:04.018Z,-2.09
2022-12-12T11:44:25.022Z,-2.03
2022-12-12T11:45:03.991Z,-2.00
2022-12-12T11:46:04.026Z,-1.97
2022-12-12T11:47:03.977Z,-1.88
2022-12-12T11:48:03.956Z,-1.91
2022-12-12T11:49:03.985Z,-1.87
2022-12-12T11:50:10.651Z,-1.87
2022-12-12T11:51:04.922Z,-1.87
2022-12-12T11:52:03.904Z,-1.85
2022-12-12T11:53:03.909Z,-1.87
2022-12-12T11:54:03.927Z,-1.87
2022-12-12T11:55:03.889Z,-1.90
2022-12-12T11:56:03.871Z,-1.85
2022-12-12T11:57:03.849Z,-1.85
2022-12-12T11:58:04.223Z,-1.92
2022-12-12T11:59:03.832Z,-1.87
2022-12-12T12:00:03.863Z,-1.85
2022-12-12T12:01:03.808Z,-1.87
2022-12-12T12:02:03.796Z,-1.84
2022-12-12T12:03:03.819Z,-1.88
2022-12-12T12:04:03.888Z,-1.90
2022-12-12T12:05:03.787Z,-1.84
2022-12-12T12:06:03.781Z,-1.85
2022-12-12T12:07:03.779Z,-1.77
2022-12-12T12:08:03.799Z,-1.84
2022-12-12T12:09:03.726Z,-1.84
2022-12-12T12:10:03.723Z,-1.84
2022-12-12T12:11:03.704Z,-1.80
2022-12-12T12:12:03.727Z,-1.82
2022-12-12T12:13:03.674Z,-1.79
2022-12-12T12:14:03.665Z,-1.79
2022-12-12T12:15:03.660Z,-1.79
2022-12-12T12:16:03.661Z,-1.80
2022-12-12T12:17:03.705Z,-1.77
2022-12-12T12:18:03.656Z,-1.73
2022-12-12T12:19:03.617Z,-1.70
2022-12-12T12:20:03.648Z,-1.72
2022-12-12T12:21:03.608Z,-1.66
2022-12-12T12:22:03.581Z,-1.70
2022-12-12T12:23:03.587Z,-1.67
2022-12-12T12:24:03.601Z,-1.69
2022-12-12T12:25:03.554Z,-1.72
2022-12-12T12:26:03.539Z,-1.73
2022-12-12T12:27:03.529Z,-1.70
2022-12-12T12:28:03.538Z,-1.69
2022-12-12T12:29:03.513Z,-1.66
2022-12-12T12:30:03.527Z,-1.73
2022-12-12T12:31:03.514Z,-1.74
2022-12-12T12:32:03.478Z,-1.67
2022-12-12T12:33:03.481Z,-1.62
2022-12-12T12:34:03.453Z,-1.66
2022-12-12T12:35:03.454Z,-1.54
2022-12-12T12:36:03.468Z,-1.59
2022-12-12T12:37:03.428Z,-1.67
2022-12-12T12:38:03.431Z,-1.69
2022-12-12T12:39:03.412Z,-1.74
2022-12-12T12:40:03.392Z,-1.64
2022-12-12T12:41:03.385Z,-1.67
2022-12-12T12:42:03.407Z,-1.66
2022-12-12T12:43:03.356Z,-1.62
2022-12-12T12:44:03.367Z,-1.66
2022-12-12T12:45:03.356Z,-1.77
2022-12-12T12:46:03.374Z,-1.70
2022-12-12T12:47:03.306Z,-1.66
2022-12-12T12:48:08.768Z,-1.70
2022-12-12T12:49:04.309Z,-1.69
2022-12-12T12:50:03.278Z,-1.73
2022-12-12T12:51:03.263Z,-1.73
2022-12-12T12:52:03.270Z,-1.73